Aurora — ZCDW9 — position and weather

sailwx.info

Track history (hours):
 
Tides and Currents Weather Stations Pressure Air Temp Water Temp Dewpoint Dewpoint Depression Visibility Wind Speed Wind Dir Waves Ship Positions

Aurora (Bermuda)

Last reported at 2018-Dec-14 18:30 UTC. Time now 2018-Dec-14 18:59 UTC.
Position N 56°09' E 012°30'.

Length 271 m; draft 8.3 m.

Type: Ship. MMSI: 310555970.

Date/timePositionNaut miles runAvg speedWind from/ knotsBaromVisibWave heightAir tempDewpointWater temp
2018-Dec-14 18:30N 56°09' E 012°30'714.0
2018-Dec-14 18:00N 56°04' E 012°38'714.2
2018-Dec-14 17:30N 55°57' E 012°40'714.5
2018-Dec-14 17:00N 55°50' E 012°42'611.9
2018-Dec-14 16:30N 55°44' E 012°40'3 5.5
2018-Dec-14 16:00N 55°42' E 012°36'0 0.1
2018-Dec-14 15:28N 55°42' E 012°36'0 0.0
2018-Dec-14 14:58N 55°42' E 012°36'0 0.0
2018-Dec-14 14:28N 55°42' E 012°36'0 0.0
2018-Dec-14 13:58N 55°42' E 012°36'0 0.0
2018-Dec-14 13:28N 55°42' E 012°36'0 0.0
2018-Dec-14 12:58N 55°42' E 012°36'0 0.0
2018-Dec-14 12:28N 55°42' E 012°36'0 0.0
2018-Dec-14 11:58N 55°42' E 012°36'0 0.0
2018-Dec-14 11:28N 55°42' E 012°36'0 0.0
2018-Dec-14 10:58N 55°42' E 012°36'0 0.0
2018-Dec-14 10:28N 55°42' E 012°36'0 0.0
2018-Dec-14 09:58N 55°42' E 012°36'0 0.0
2018-Dec-14 09:28N 55°42' E 012°36'0 0.0
2018-Dec-14 08:58N 55°42' E 012°36'0 0.0
2018-Dec-14 08:28N 55°42' E 012°36'0 0.0
2018-Dec-14 07:58N 55°42' E 012°36'0 0.0
2018-Dec-14 07:28N 55°42' E 012°36'0 0.0
2018-Dec-14 06:58N 55°42' E 012°36'0 0.0
2018-Dec-14 06:28N 55°42' E 012°36'0 0.1
2018-Dec-14 06:00N 55°42' E 012°36'3 6.6
2018-Dec-14 05:30N 55°44' E 012°40'714.1
2018-Dec-14 05:00N 55°51' E 012°41'714.2
2018-Dec-14 04:30N 55°58' E 012°40'714.6
2018-Dec-14 04:00N 56°05' E 012°35'1413.8
2018-Dec-14 03:00N 56°13' E 012°15'814.4
2018-Dec-14 02:29N 56°18' E 012°04'4115.3
2018-Dec-13 23:46N 56°58' E 011°44'415.8
2018-Dec-13 23:30N 57°02' E 011°42'815.3
2018-Dec-13 23:00N 57°09' E 011°36'714.8
2018-Dec-13 22:30N 57°15' E 011°31'815.2
2018-Dec-13 22:00N 57°22' E 011°26'815.7
2018-Dec-13 21:30N 57°29' E 011°19'816.2
2018-Dec-13 21:00N 57°35' E 011°08'917.2
2018-Dec-13 20:30N 57°41' E 010°56'917.1
2018-Dec-13 20:00N 57°47' E 010°45'815.7
2018-Dec-13 19:30N 57°48' E 010°31'816.3
2018-Dec-13 19:00N 57°47' E 010°15'816.2
2018-Dec-13 18:30N 57°47' E 010°00'816.2
2018-Dec-13 18:00N 57°46' E 009°45'41487.7
2018-Dec-13 18:00N 57°42' E 009°48'918.3 100 / 281031.210.8 2.8 1.5 8.0
2018-Dec-13 17:29N 57°42' E 009°30'916.9
2018-Dec-13 16:58N 57°37' E 009°17'816.7
2018-Dec-13 16:30N 57°33' E 009°05'816.3
2018-Dec-13 16:00N 57°29' E 008°52'816.0
2018-Dec-13 15:30N 57°25' E 008°38'815.2
2018-Dec-13 15:00N 57°22' E 008°25'714.5
2018-Dec-13 14:30N 57°18' E 008°14'815.5
2018-Dec-13 14:00N 57°12' E 008°06'815.4
2018-Dec-13 13:30N 57°06' E 007°57'915.0
2018-Dec-13 12:55N 56°58' E 007°51'915.5
2018-Dec-13 12:20N 56°49' E 007°48'1415.8
2018-Dec-13 11:27N 56°35' E 007°42'15416.3
2018-Dec-13 02:01N 54°02' E 008°05'016.7
2018-Dec-13 02:00N 54°01' E 008°05'714.6
2018-Dec-13 01:30N 54°00' E 008°17'815.4
2018-Dec-13 01:00N 53°59' E 008°30'713.7
2018-Dec-13 00:30N 53°56' E 008°40'612.3
2018-Dec-12 23:59N 53°51' E 008°47'613.4
2018-Dec-12 23:30N 53°51' E 008°58'714.6
2018-Dec-12 23:00N 53°53' E 009°10'612.2
2018-Dec-12 22:30N 53°51' E 009°20'815.3
2018-Dec-12 22:00N 53°44' E 009°26'713.9
2018-Dec-12 21:30N 53°38' E 009°32'713.8
2018-Dec-12 21:00N 53°34' E 009°41'612.7
2018-Dec-12 20:30N 53°33' E 009°52'3 6.8
2018-Dec-12 20:00N 53°32' E 009°57'0 0.7
2018-Dec-12 19:28N 53°32' E 009°58'0 0.0
2018-Dec-12 18:58N 53°32' E 009°58'0 0.0
2018-Dec-12 18:28N 53°32' E 009°58'0 0.0
2018-Dec-12 17:58N 53°32' E 009°58'0 0.0
2018-Dec-12 17:28N 53°32' E 009°58'0 0.0
2018-Dec-12 16:58N 53°32' E 009°58'0 0.0
2018-Dec-12 16:28N 53°32' E 009°58'0 0.0
2018-Dec-12 15:58N 53°32' E 009°58'0 0.0
2018-Dec-12 15:28N 53°32' E 009°58'0 0.0
2018-Dec-12 14:58N 53°32' E 009°58'0 0.0
2018-Dec-12 14:28N 53°32' E 009°58'0 0.0
2018-Dec-12 13:58N 53°32' E 009°58'0 0.0
2018-Dec-12 13:28N 53°32' E 009°58'0 0.0
2018-Dec-12 12:58N 53°32' E 009°58'0 0.0
2018-Dec-12 12:28N 53°32' E 009°58'0 0.0
2018-Dec-12 11:58N 53°32' E 009°58'0 0.0
2018-Dec-12 11:28N 53°32' E 009°58'0 0.0
2018-Dec-12 10:58N 53°32' E 009°58'0 0.0
2018-Dec-12 10:28N 53°32' E 009°58'0 0.0
2018-Dec-12 09:58N 53°32' E 009°58'0 0.0
2018-Dec-12 09:28N 53°32' E 009°58'0 0.0
2018-Dec-12 08:58N 53°32' E 009°58'0 0.0
2018-Dec-12 08:28N 53°32' E 009°58'0 0.0
2018-Dec-12 07:58N 53°32' E 009°58'0 0.0
2018-Dec-12 07:28N 53°32' E 009°58'0 0.0
2018-Dec-12 06:58N 53°32' E 009°58'0 0.0
2018-Dec-12 06:28N 53°32' E 009°58'0 0.0
2018-Dec-12 05:58N 53°32' E 009°58'0 0.8
2018-Dec-12 05:30N 53°32' E 009°57'1 2.9
2018-Dec-12 05:00N 53°32' E 009°55'3 7.0
2018-Dec-12 04:30N 53°33' E 009°49'611.4
2018-Dec-12 04:00N 53°34' E 009°40'612.9
2018-Dec-12 03:30N 53°38' E 009°31'611.5
2018-Dec-12 03:00N 53°44' E 009°27'612.5
2018-Dec-12 02:30N 53°49' E 009°22'612.4
2018-Dec-12 02:00N 53°53' E 009°14'510.7
2018-Dec-12 01:30N 53°52' E 009°05'713.1
2018-Dec-12 01:00N 53°50' E 008°54'713.2
2018-Dec-12 00:30N 53°52' E 008°43'714.0
2018-Dec-12 00:00N 53°58' E 008°35'918.4
2018-Dec-11 23:30N 53°59' E 008°20'714.7
2018-Dec-11 23:00N 53°59' E 008°08'610.7
2018-Dec-11 22:29N 53°57' E 007°59'5 9.0
2018-Dec-11 21:59N 53°57' E 007°51'5 8.9
2018-Dec-11 21:24N 53°57' E 007°42'4513.3
2018-Dec-11 18:00N 53°42' E 006°30'3419.2 050 / 101024.110.8 7.0 2.9 8.0
2018-Dec-11 16:12N 53°36' E 005°33'515.4
2018-Dec-11 15:52N 53°34' E 005°25'515.1
2018-Dec-11 15:31N 53°32' E 005°16'815.2
2018-Dec-11 15:01N 53°29' E 005°04'815.2
2018-Dec-11 14:31N 53°27' E 004°53'714.3
2018-Dec-11 14:00N 53°24' E 004°41'714.4
2018-Dec-11 13:31N 53°17' E 004°35'714.4
2018-Dec-11 13:01N 53°11' E 004°31'714.2
2018-Dec-11 12:31N 53°05' E 004°25'612.8
2018-Dec-11 12:00N 52°59' E 004°20'612.5
2018-Dec-11 11:30N 52°53' E 004°15'714.2
2018-Dec-11 11:00N 52°47' E 004°10'714.1
2018-Dec-11 10:30N 52°41' E 004°04'714.4
2018-Dec-11 10:00N 52°36' E 003°55'6369.5
2018-Dec-11 10:00N 52°30' E 003°54'4 9.2 020 / 131024.910.8 9.3 4.311.0
2018-Dec-11 09:30N 52°31' E 003°47'714.9
2018-Dec-11 09:00N 52°25' E 003°39'815.1
2018-Dec-11 08:30N 52°20' E 003°30'815.4
2018-Dec-11 08:00N 52°15' E 003°20'815.8
2018-Dec-11 07:30N 52°10' E 003°10'815.9
2018-Dec-11 06:58N 52°04' E 003°00'2516.2
2018-Dec-11 05:27N 51°45' E 002°36'816.9
2018-Dec-11 05:00N 51°40' E 002°27'816.6
2018-Dec-11 04:30N 51°33' E 002°19'816.7
2018-Dec-11 04:01N 51°26' E 002°12'816.7
2018-Dec-11 03:30N 51°18' E 002°09'816.4
2018-Dec-11 03:00N 51°12' E 001°59'917.6
2018-Dec-11 02:30N 51°08' E 001°47'918.1
2018-Dec-11 02:00N 51°01' E 001°38'299.7
2018-Dec-11 02:00N 51°00' E 001°36'715.3 360 / 51026.610.8 8.2 5.112.0
2018-Dec-11 01:31N 50°54' E 001°28'816.9
2018-Dec-11 01:00N 50°47' E 001°22'816.2
2018-Dec-11 00:31N 50°40' E 001°15'916.5
2018-Dec-10 23:58N 50°34' E 001°05'816.6
2018-Dec-10 23:29N 50°31' E 000°53'816.9
2018-Dec-10 23:00N 50°28' E 000°41'536582.0
2018-Dec-10 23:00N 50°24' W 000°42'4488.6 360 / 91027.610.8 9.5 5.712.0
2018-Dec-10 22:29N 50°26' E 000°28'1417.4
2018-Dec-10 21:40N 50°22' E 000°06'317.2
2018-Dec-10 21:29N 50°21' E 000°01'816.9
2018-Dec-10 21:00N 50°21' W 000°12'1316.7
2018-Dec-10 20:12N 50°28' W 000°30'316.2
2018-Dec-10 20:00N 50°29' W 000°34'816.3
2018-Dec-10 19:30N 50°33' W 000°45'815.9
2018-Dec-10 19:00N 50°38' W 000°55'611.1
2018-Dec-10 18:30N 50°43' W 000°60'816.5
2018-Dec-10 18:00N 50°46' W 001°12'510.0
2018-Dec-10 17:31N 50°49' W 001°18'5 9.4
2018-Dec-10 17:00N 50°52' W 001°23'3 5.1
2018-Dec-10 16:29N 50°54' W 001°26'0 0.0
2018-Dec-10 15:59N 50°54' W 001°26'0 0.0
2018-Dec-10 15:29N 50°54' W 001°26'0 0.0
2018-Dec-10 14:59N 50°54' W 001°26'0 0.0
2018-Dec-10 14:29N 50°54' W 001°26'0 0.0
2018-Dec-10 13:59N 50°54' W 001°26'0 0.0
2018-Dec-10 13:29N 50°54' W 001°26'0 0.0
2018-Dec-10 12:59N 50°54' W 001°26'0 0.0
2018-Dec-10 12:29N 50°54' W 001°26'0 0.0
2018-Dec-10 11:59N 50°54' W 001°26'0 0.0
2018-Dec-10 11:29N 50°54' W 001°26'0 0.0
2018-Dec-10 10:59N 50°54' W 001°26'0 0.0
2018-Dec-10 10:29N 50°54' W 001°26'0 0.0
2018-Dec-10 09:59N 50°54' W 001°26'0 0.0
2018-Dec-10 09:29N 50°54' W 001°26'0 0.0
2018-Dec-10 08:59N 50°54' W 001°26'0 0.0
2018-Dec-10 08:26N 50°54' W 001°26'0 0.0
2018-Dec-10 07:59N 50°54' W 001°26'0 0.0
2018-Dec-10 07:26N 50°54' W 001°26'0 0.0
2018-Dec-10 06:50N 50°54' W 001°26'0 0.0
2018-Dec-10 06:30N 50°54' W 001°26'1 1.6
2018-Dec-10 06:00N 50°54' W 001°25'4 9.0
2018-Dec-10 05:31N 50°51' W 001°20'4 8.8
2018-Dec-10 05:00N 50°46' W 001°18'715.0
2018-Dec-10 04:31N 50°45' W 001°06'713.6
2018-Dec-10 04:00N 50°42' W 000°56'10 9.7
2018-Dec-10 03:00N 50°36' W 000°44'917.6
2018-Dec-10 02:30N 50°34' W 000°31'1218.2
2018-Dec-10 01:50N 50°32' W 000°12'617.6
2018-Dec-10 01:30N 50°32' W 000°03'917.7
2018-Dec-10 01:00N 50°35' E 000°11'917.2
2018-Dec-10 00:30N 50°37' E 000°24'816.7
2018-Dec-10 00:00N 50°39' E 000°37'816.6
2018-Dec-09 23:30N 50°43' E 000°48'816.8
2018-Dec-09 23:00N 50°48' E 000°59'917.2
2018-Dec-09 22:30N 50°52' E 001°11'918.4
2018-Dec-09 22:00N 50°58' E 001°22'1020.5
2018-Dec-09 21:30N 51°05' E 001°34'1020.9
2018-Dec-09 21:00N 51°13' E 001°45'1020.7
2018-Dec-09 20:30N 51°22' E 001°52'1019.8
2018-Dec-09 20:00N 51°31' E 001°58'1019.0
2018-Dec-09 19:30N 51°40' E 002°05'918.2
2018-Dec-09 19:00N 51°48' E 002°09'917.6
2018-Dec-09 18:30N 51°57' E 002°12'917.0
2018-Dec-09 18:00N 52°05' E 002°15'816.4
2018-Dec-09 17:30N 52°13' E 002°17'816.2
2018-Dec-09 17:00N 52°21' E 002°20'815.9
2018-Dec-09 16:30N 52°29' E 002°24'815.7
2018-Dec-09 16:00N 52°37' E 002°26'815.6
2018-Dec-09 15:30N 52°44' E 002°29'815.9
2018-Dec-09 15:00N 52°52' E 002°32'816.2
2018-Dec-09 14:30N 53°00' E 002°35'26817.6
2018-Dec-08 23:19N 57°18' E 004°37'617.5
2018-Dec-08 22:59N 57°24' E 004°39'917.5
2018-Dec-08 22:28N 57°33' E 004°43'919.1
2018-Dec-08 22:00N 57°42' E 004°42'24266.4 310 / 25979.2 7.5 6.1 8.0
2018-Dec-08 21:59N 57°41' E 004°46'817.1
2018-Dec-08 21:30N 57°49' E 004°49'816.7
2018-Dec-08 21:00N 57°57' E 004°53'916.9
2018-Dec-08 20:30N 58°06' E 004°57'817.0
2018-Dec-08 20:00N 58°14' E 005°01'917.3
2018-Dec-08 19:30N 58°22' E 005°05'816.9
2018-Dec-08 19:00N 58°30' E 005°08'816.3
2018-Dec-08 18:30N 58°38' E 005°12'815.6
2018-Dec-08 18:00N 58°45' E 005°18'815.0
2018-Dec-08 17:30N 58°51' E 005°28'612.6
2018-Dec-08 17:00N 58°57' E 005°33'712.9
2018-Dec-08 16:30N 59°03' E 005°35'510.7
2018-Dec-08 16:00N 58°59' E 005°42'1 1.9
2018-Dec-08 15:28N 58°58' E 005°44'0 0.0
2018-Dec-08 14:58N 58°58' E 005°44'0 0.0
2018-Dec-08 14:28N 58°58' E 005°44'0 0.0
2018-Dec-08 13:58N 58°58' E 005°44'0 0.0
2018-Dec-08 13:28N 58°58' E 005°44'0 0.0
2018-Dec-08 12:58N 58°58' E 005°44'0 0.0
2018-Dec-08 12:28N 58°58' E 005°44'0 0.0
2018-Dec-08 11:58N 58°58' E 005°44'0 0.0
2018-Dec-08 11:28N 58°58' E 005°44'0 0.0
2018-Dec-08 10:58N 58°58' E 005°44'0 0.0
2018-Dec-08 10:28N 58°58' E 005°44'0 0.0
2018-Dec-08 09:58N 58°58' E 005°44'0 0.0
2018-Dec-08 09:28N 58°58' E 005°44'0 0.0
2018-Dec-08 08:58N 58°58' E 005°44'0 0.0
2018-Dec-08 08:28N 58°58' E 005°44'0 0.0
2018-Dec-08 07:58N 58°58' E 005°44'0 0.1
2018-Dec-08 07:31N 58°59' E 005°44'2 4.1
2018-Dec-08 07:00N 59°00' E 005°41'612.6
2018-Dec-08 06:30N 59°05' E 005°32'4 8.3
2018-Dec-08 06:00N 59°06' E 005°24'816.8
2018-Dec-08 05:30N 59°02' E 005°10'918.8
2018-Dec-08 05:00N 59°08' E 004°55'1019.1
2018-Dec-08 04:30N 59°15' E 004°42'919.0
2018-Dec-08 04:01N 59°23' E 004°36'1019.1
2018-Dec-08 03:30N 59°33' E 004°30'1019.2
2018-Dec-08 03:00N 59°42' E 004°23'917.4
2018-Dec-08 02:30N 59°50' E 004°17'816.6
2018-Dec-08 02:00N 59°57' E 004°11'917.4
2018-Dec-08 01:30N 60°05' E 004°06'917.7
2018-Dec-08 01:00N 60°14' E 004°01'816.8
2018-Dec-08 00:30N 60°22' E 004°02'816.7
2018-Dec-08 00:00N 60°31' E 004°03'816.6
2018-Dec-07 23:30N 60°39' E 004°03'916.8
2018-Dec-07 22:59N 60°48' E 004°03'817.1
2018-Dec-07 22:30N 60°56' E 004°02'816.6
2018-Dec-07 22:00N 61°04' E 004°02'4342.0
2018-Dec-07 22:00N 61°00' E 004°00'1325.8 210 / 23978.810.8 8.5 6.3 9.0
2018-Dec-07 21:30N 61°13' E 004°02'816.8
2018-Dec-07 21:00N 61°21' E 004°01'917.1
2018-Dec-07 20:30N 61°30' E 004°00'917.4
2018-Dec-07 20:00N 61°38' E 003°60'917.9
2018-Dec-07 19:30N 61°47' E 003°60'917.3
2018-Dec-07 19:00N 61°56' E 004°00'917.6
2018-Dec-07 18:30N 62°04' E 004°06'1021.2
2018-Dec-07 18:00N 62°13' E 004°17'1121.1
2018-Dec-07 17:30N 62°23' E 004°28'1020.7
2018-Dec-07 17:00N 62°31' E 004°40'1121.0
2018-Dec-07 16:30N 62°41' E 004°51'1020.2
2018-Dec-07 16:00N 62°49' E 005°03'1021.0
2018-Dec-07 15:30N 62°58' E 005°14'1020.6
2018-Dec-07 15:00N 63°07' E 005°26'1020.1
2018-Dec-07 14:30N 63°16' E 005°37'1120.8
2018-Dec-07 14:00N 63°25' E 005°49'1020.8
2018-Dec-07 13:30N 63°34' E 006°00'1120.9
2018-Dec-07 13:00N 63°43' E 006°12'1121.5
2018-Dec-07 12:30N 63°52' E 006°24'1121.5
2018-Dec-07 12:01N 64°01' E 006°37'1121.3
2018-Dec-07 11:30N 64°11' E 006°49'1121.4
2018-Dec-07 11:00N 64°20' E 007°01'1121.2
2018-Dec-07 10:29N 64°29' E 007°14'1121.3
2018-Dec-07 10:00N 64°38' E 007°27'1121.3
2018-Dec-07 09:30N 64°48' E 007°39'1121.0
2018-Dec-07 09:00N 64°57' E 007°52'1020.8
2018-Dec-07 08:30N 65°06' E 008°04'1220.9
2018-Dec-07 07:56N 65°16' E 008°18'1319.8
2018-Dec-07 07:17N 65°27' E 008°34'617.8
2018-Dec-07 06:58N 65°32' E 008°41'818.0
2018-Dec-07 06:30N 65°39' E 008°51'918.2
2018-Dec-07 06:00N 65°47' E 009°02'918.1
2018-Dec-07 05:30N 65°55' E 009°13'917.9
2018-Dec-07 05:00N 66°02' E 009°24'917.9
2018-Dec-07 04:30N 66°10' E 009°36'917.8
2018-Dec-07 04:00N 66°18' E 009°46'917.8
2018-Dec-07 03:30N 66°26' E 009°57'1818.0
2018-Dec-07 02:30N 66°41' E 010°21'918.0
2018-Dec-07 02:00N 66°49' E 010°32'918.1
2018-Dec-07 01:30N 66°57' E 010°43'918.0
2018-Dec-07 01:00N 67°04' E 010°55'917.6
2018-Dec-07 00:30N 67°12' E 011°06'917.5
2018-Dec-07 00:00N 67°20' E 011°18'917.2
2018-Dec-06 23:30N 67°27' E 011°31'817.0
2018-Dec-06 23:00N 67°34' E 011°43'918.2
2018-Dec-06 22:30N 67°41' E 011°57'918.0
2018-Dec-06 22:00N 67°49' E 012°10'917.5
2018-Dec-06 21:30N 67°56' E 012°23'917.4
2018-Dec-06 21:00N 68°03' E 012°37'817.0
2018-Dec-06 20:30N 68°10' E 012°49'816.9
2018-Dec-06 20:01N 68°17' E 013°02'917.9
2018-Dec-06 19:30N 68°24' E 013°17'917.7
2018-Dec-06 19:00N 68°31' E 013°31'917.4
2018-Dec-06 18:29N 68°39' E 013°44'917.7
2018-Dec-06 18:00N 68°46' E 013°58'917.9
2018-Dec-06 17:30N 68°53' E 014°12'816.9
2018-Dec-06 17:00N 68°60' E 014°26'816.5
2018-Dec-06 16:30N 69°06' E 014°41'917.9
2018-Dec-06 16:00N 69°14' E 014°55'817.1
2018-Dec-06 15:30N 69°21' E 015°09'917.0
2018-Dec-06 15:00N 69°27' E 015°26'816.4
2018-Dec-06 14:30N 69°32' E 015°44'916.7
2018-Dec-06 14:00N 69°37' E 016°03'817.0
2018-Dec-06 13:30N 69°43' E 016°21'917.6
2018-Dec-06 13:00N 69°48' E 016°41'918.4
2018-Dec-06 12:30N 69°54' E 017°02'918.0
2018-Dec-06 12:00N 69°59' E 017°23'817.2
2018-Dec-06 11:31N 70°04' E 017°43'917.5
2018-Dec-06 11:00N 70°10' E 018°03'817.1
2018-Dec-06 10:30N 70°15' E 018°23'816.4
2018-Dec-06 10:00N 70°20' E 018°44'52990.2
2018-Dec-06 10:00N 70°18' E 018°30'1326.2 300 / 43996.710.8 3.2 1.1 8.0
2018-Dec-06 09:30N 70°23' E 019°05'815.9
2018-Dec-06 09:00N 70°23' E 019°29'917.0
2018-Dec-06 08:30N 70°22' E 019°54'816.8
2018-Dec-06 08:00N 70°21' E 020°19'815.7
2018-Dec-06 07:30N 70°13' E 020°21'815.7
2018-Dec-06 07:00N 70°06' E 020°15'611.2
2018-Dec-06 06:30N 70°11' E 020°22'916.8
2018-Dec-06 06:00N 70°17' E 020°40'917.7
2018-Dec-06 05:30N 70°21' E 021°03'917.3
2018-Dec-06 05:00N 70°26' E 021°25'817.1
2018-Dec-06 04:30N 70°25' E 021°50'815.5
2018-Dec-06 04:00N 70°20' E 022°09'1717.2
2018-Dec-06 03:00N 70°13' E 022°56'815.8
2018-Dec-06 02:30N 70°06' E 023°05'714.9
2018-Dec-06 02:00N 70°00' E 023°18'1 2.8
2018-Dec-06 01:30N 69°59' E 023°20'0 0.0
2018-Dec-06 01:00N 69°59' E 023°20'0 0.0
2018-Dec-06 00:30N 69°59' E 023°20'0 0.0
2018-Dec-06 00:00N 69°59' E 023°20'0 0.0
2018-Dec-05 23:30N 69°59' E 023°20'0 0.0
2018-Dec-05 23:00N 69°59' E 023°20'0 0.0
2018-Dec-05 22:30N 69°59' E 023°20'0 0.0
2018-Dec-05 22:00N 69°59' E 023°20'0 0.0
2018-Dec-05 21:30N 69°59' E 023°20'0 0.0
2018-Dec-05 21:00N 69°59' E 023°20'0 0.0
2018-Dec-05 20:30N 69°59' E 023°20'0 0.0
2018-Dec-05 20:00N 69°59' E 023°20'0 0.0
2018-Dec-05 19:30N 69°59' E 023°20'0 0.0
2018-Dec-05 19:00N 69°59' E 023°20'0 0.0
2018-Dec-05 18:30N 69°59' E 023°20'0 0.0
2018-Dec-05 18:00N 69°59' E 023°20'0 0.0
2018-Dec-05 17:30N 69°59' E 023°20'0 0.0
2018-Dec-05 17:00N 69°59' E 023°20'0 0.0
2018-Dec-05 16:30N 69°59' E 023°20'0 0.0
2018-Dec-05 16:00N 69°59' E 023°20'0 0.0
2018-Dec-05 15:30N 69°59' E 023°20'0 0.0
2018-Dec-05 14:57N 69°59' E 023°20'0 0.0
2018-Dec-05 14:30N 69°59' E 023°20'0 0.0
2018-Dec-05 14:00N 69°59' E 023°20'0 0.0
2018-Dec-05 13:30N 69°59' E 023°20'0 0.0
2018-Dec-05 13:00N 69°59' E 023°20'0 0.0
2018-Dec-05 12:30N 69°59' E 023°20'0 0.0
2018-Dec-05 12:00N 69°59' E 023°20'0 0.0
2018-Dec-05 11:30N 69°59' E 023°20'0 0.0
2018-Dec-05 11:00N 69°59' E 023°20'0 0.0
2018-Dec-05 10:30N 69°59' E 023°20'0 0.0
2018-Dec-05 10:00N 69°59' E 023°20'0 0.0
2018-Dec-05 09:30N 69°59' E 023°20'0 0.0
2018-Dec-05 09:00N 69°59' E 023°20'0 0.0
2018-Dec-05 08:30N 69°59' E 023°20'0 0.0
2018-Dec-05 08:00N 69°59' E 023°20'0 0.0
2018-Dec-05 07:30N 69°59' E 023°20'0 0.0
2018-Dec-05 07:00N 69°59' E 023°20'0 0.0
2018-Dec-05 06:30N 69°59' E 023°20'0 0.0
2018-Dec-05 06:00N 69°59' E 023°20'0 0.0
2018-Dec-05 05:30N 69°59' E 023°20'0 0.0
2018-Dec-05 05:00N 69°59' E 023°20'0 0.0
2018-Dec-05 04:30N 69°59' E 023°20'0 0.0
2018-Dec-05 04:00N 69°59' E 023°20'0 0.0
2018-Dec-05 03:30N 69°59' E 023°20'0 0.0
2018-Dec-05 03:00N 69°59' E 023°20'0 0.0
2018-Dec-05 02:30N 69°59' E 023°20'0 0.0
2018-Dec-05 02:00N 69°59' E 023°20'0 0.0
2018-Dec-05 01:30N 69°59' E 023°20'0 0.0
2018-Dec-05 01:00N 69°59' E 023°20'0 0.0
2018-Dec-05 00:30N 69°59' E 023°20'0 0.0
2018-Dec-05 00:00N 69°59' E 023°20'0 0.0
2018-Dec-04 23:30N 69°59' E 023°20'0 0.0
2018-Dec-04 23:00N 69°59' E 023°20'0 0.0
2018-Dec-04 22:30N 69°59' E 023°20'0 0.0
2018-Dec-04 22:00N 69°59' E 023°20'0 0.0
2018-Dec-04 21:30N 69°59' E 023°20'0 0.0
2018-Dec-04 21:00N 69°59' E 023°20'0 0.0
2018-Dec-04 20:30N 69°59' E 023°20'0 0.0
2018-Dec-04 20:00N 69°59' E 023°20'0 0.0
2018-Dec-04 19:30N 69°59' E 023°20'0 0.0
2018-Dec-04 19:00N 69°59' E 023°20'  
Track history (hours):
 
Tides and Currents Weather Stations Pressure Air Temp Water Temp Dewpoint Dewpoint Depression Visibility Wind Speed Wind Dir Waves Ship Positions

Aurora (Bermuda)

Last reported at 2018-Dec-14 18:30 UTC. Time now 2018-Dec-14 18:59 UTC.
Position N 56°09' E 012°30'.

Length 271 m; draft 8.3 m.

Type: Ship. MMSI: 310555970.

Date/timePositionNaut miles runAvg speedWind from/ knotsBaromVisibWave heightAir tempDewpointWater temp
2018-Dec-14 18:30N 56°09' E 012°30'714.0
2018-Dec-14 18:00N 56°04' E 012°38'714.2
2018-Dec-14 17:30N 55°57' E 012°40'714.5
2018-Dec-14 17:00N 55°50' E 012°42'611.9
2018-Dec-14 16:30N 55°44' E 012°40'3 5.5
2018-Dec-14 16:00N 55°42' E 012°36'0 0.1
2018-Dec-14 15:28N 55°42' E 012°36'0 0.0
2018-Dec-14 14:58N 55°42' E 012°36'0 0.0
2018-Dec-14 14:28N 55°42' E 012°36'0 0.0
2018-Dec-14 13:58N 55°42' E 012°36'0 0.0
2018-Dec-14 13:28N 55°42' E 012°36'0 0.0
2018-Dec-14 12:58N 55°42' E 012°36'0 0.0
2018-Dec-14 12:28N 55°42' E 012°36'0 0.0
2018-Dec-14 11:58N 55°42' E 012°36'0 0.0
2018-Dec-14 11:28N 55°42' E 012°36'0 0.0
2018-Dec-14 10:58N 55°42' E 012°36'0 0.0
2018-Dec-14 10:28N 55°42' E 012°36'0 0.0
2018-Dec-14 09:58N 55°42' E 012°36'0 0.0
2018-Dec-14 09:28N 55°42' E 012°36'0 0.0
2018-Dec-14 08:58N 55°42' E 012°36'0 0.0
2018-Dec-14 08:28N 55°42' E 012°36'0 0.0
2018-Dec-14 07:58N 55°42' E 012°36'0 0.0
2018-Dec-14 07:28N 55°42' E 012°36'0 0.0
2018-Dec-14 06:58N 55°42' E 012°36'0 0.0
2018-Dec-14 06:28N 55°42' E 012°36'0 0.1
2018-Dec-14 06:00N 55°42' E 012°36'3 6.6
2018-Dec-14 05:30N 55°44' E 012°40'714.1
2018-Dec-14 05:00N 55°51' E 012°41'714.2
2018-Dec-14 04:30N 55°58' E 012°40'714.6
2018-Dec-14 04:00N 56°05' E 012°35'1413.8
2018-Dec-14 03:00N 56°13' E 012°15'814.4
2018-Dec-14 02:29N 56°18' E 012°04'4115.3
2018-Dec-13 23:46N 56°58' E 011°44'415.8
2018-Dec-13 23:30N 57°02' E 011°42'815.3
2018-Dec-13 23:00N 57°09' E 011°36'714.8
2018-Dec-13 22:30N 57°15' E 011°31'815.2
2018-Dec-13 22:00N 57°22' E 011°26'815.7
2018-Dec-13 21:30N 57°29' E 011°19'816.2
2018-Dec-13 21:00N 57°35' E 011°08'917.2
2018-Dec-13 20:30N 57°41' E 010°56'917.1
2018-Dec-13 20:00N 57°47' E 010°45'815.7
2018-Dec-13 19:30N 57°48' E 010°31'816.3
2018-Dec-13 19:00N 57°47' E 010°15'816.2
2018-Dec-13 18:30N 57°47' E 010°00'816.2
2018-Dec-13 18:00N 57°46' E 009°45'41487.7
2018-Dec-13 18:00N 57°42' E 009°48'918.3 100 / 281031.210.8 2.8 1.5 8.0
2018-Dec-13 17:29N 57°42' E 009°30'916.9
2018-Dec-13 16:58N 57°37' E 009°17'816.7
2018-Dec-13 16:30N 57°33' E 009°05'816.3
2018-Dec-13 16:00N 57°29' E 008°52'816.0
2018-Dec-13 15:30N 57°25' E 008°38'815.2
2018-Dec-13 15:00N 57°22' E 008°25'714.5
2018-Dec-13 14:30N 57°18' E 008°14'815.5
2018-Dec-13 14:00N 57°12' E 008°06'815.4
2018-Dec-13 13:30N 57°06' E 007°57'915.0
2018-Dec-13 12:55N 56°58' E 007°51'915.5
2018-Dec-13 12:20N 56°49' E 007°48'1415.8
2018-Dec-13 11:27N 56°35' E 007°42'15416.3
2018-Dec-13 02:01N 54°02' E 008°05'016.7
2018-Dec-13 02:00N 54°01' E 008°05'714.6
2018-Dec-13 01:30N 54°00' E 008°17'815.4
2018-Dec-13 01:00N 53°59' E 008°30'713.7
2018-Dec-13 00:30N 53°56' E 008°40'612.3
2018-Dec-12 23:59N 53°51' E 008°47'613.4
2018-Dec-12 23:30N 53°51' E 008°58'714.6
2018-Dec-12 23:00N 53°53' E 009°10'612.2
2018-Dec-12 22:30N 53°51' E 009°20'815.3
2018-Dec-12 22:00N 53°44' E 009°26'713.9
2018-Dec-12 21:30N 53°38' E 009°32'713.8
2018-Dec-12 21:00N 53°34' E 009°41'612.7
2018-Dec-12 20:30N 53°33' E 009°52'3 6.8
2018-Dec-12 20:00N 53°32' E 009°57'0 0.7
2018-Dec-12 19:28N 53°32' E 009°58'0 0.0
2018-Dec-12 18:58N 53°32' E 009°58'0 0.0
2018-Dec-12 18:28N 53°32' E 009°58'0 0.0
2018-Dec-12 17:58N 53°32' E 009°58'0 0.0
2018-Dec-12 17:28N 53°32' E 009°58'0 0.0
2018-Dec-12 16:58N 53°32' E 009°58'0 0.0
2018-Dec-12 16:28N 53°32' E 009°58'0 0.0
2018-Dec-12 15:58N 53°32' E 009°58'0 0.0
2018-Dec-12 15:28N 53°32' E 009°58'0 0.0
2018-Dec-12 14:58N 53°32' E 009°58'0 0.0
2018-Dec-12 14:28N 53°32' E 009°58'0 0.0
2018-Dec-12 13:58N 53°32' E 009°58'0 0.0
2018-Dec-12 13:28N 53°32' E 009°58'0 0.0
2018-Dec-12 12:58N 53°32' E 009°58'0 0.0
2018-Dec-12 12:28N 53°32' E 009°58'0 0.0
2018-Dec-12 11:58N 53°32' E 009°58'0 0.0
2018-Dec-12 11:28N 53°32' E 009°58'0 0.0
2018-Dec-12 10:58N 53°32' E 009°58'0 0.0
2018-Dec-12 10:28N 53°32' E 009°58'0 0.0
2018-Dec-12 09:58N 53°32' E 009°58'0 0.0
2018-Dec-12 09:28N 53°32' E 009°58'0 0.0
2018-Dec-12 08:58N 53°32' E 009°58'0 0.0
2018-Dec-12 08:28N 53°32' E 009°58'0 0.0
2018-Dec-12 07:58N 53°32' E 009°58'0 0.0
2018-Dec-12 07:28N 53°32' E 009°58'0 0.0
2018-Dec-12 06:58N 53°32' E 009°58'0 0.0
2018-Dec-12 06:28N 53°32' E 009°58'0 0.0
2018-Dec-12 05:58N 53°32' E 009°58'0 0.8
2018-Dec-12 05:30N 53°32' E 009°57'1 2.9
2018-Dec-12 05:00N 53°32' E 009°55'3 7.0
2018-Dec-12 04:30N 53°33' E 009°49'611.4
2018-Dec-12 04:00N 53°34' E 009°40'612.9
2018-Dec-12 03:30N 53°38' E 009°31'611.5
2018-Dec-12 03:00N 53°44' E 009°27'612.5
2018-Dec-12 02:30N 53°49' E 009°22'612.4
2018-Dec-12 02:00N 53°53' E 009°14'510.7
2018-Dec-12 01:30N 53°52' E 009°05'713.1
2018-Dec-12 01:00N 53°50' E 008°54'713.2
2018-Dec-12 00:30N 53°52' E 008°43'714.0
2018-Dec-12 00:00N 53°58' E 008°35'918.4
2018-Dec-11 23:30N 53°59' E 008°20'714.7
2018-Dec-11 23:00N 53°59' E 008°08'610.7
2018-Dec-11 22:29N 53°57' E 007°59'5 9.0
2018-Dec-11 21:59N 53°57' E 007°51'5 8.9
2018-Dec-11 21:24N 53°57' E 007°42'4513.3
2018-Dec-11 18:00N 53°42' E 006°30'3419.2 050 / 101024.110.8 7.0 2.9 8.0
2018-Dec-11 16:12N 53°36' E 005°33'515.4
2018-Dec-11 15:52N 53°34' E 005°25'515.1
2018-Dec-11 15:31N 53°32' E 005°16'815.2
2018-Dec-11 15:01N 53°29' E 005°04'815.2
2018-Dec-11 14:31N 53°27' E 004°53'714.3
2018-Dec-11 14:00N 53°24' E 004°41'714.4
2018-Dec-11 13:31N 53°17' E 004°35'714.4
2018-Dec-11 13:01N 53°11' E 004°31'714.2
2018-Dec-11 12:31N 53°05' E 004°25'612.8
2018-Dec-11 12:00N 52°59' E 004°20'612.5
2018-Dec-11 11:30N 52°53' E 004°15'714.2
2018-Dec-11 11:00N 52°47' E 004°10'714.1
2018-Dec-11 10:30N 52°41' E 004°04'714.4
2018-Dec-11 10:00N 52°36' E 003°55'6369.5
2018-Dec-11 10:00N 52°30' E 003°54'4 9.2 020 / 131024.910.8 9.3 4.311.0
2018-Dec-11 09:30N 52°31' E 003°47'714.9
2018-Dec-11 09:00N 52°25' E 003°39'815.1
2018-Dec-11 08:30N 52°20' E 003°30'815.4
2018-Dec-11 08:00N 52°15' E 003°20'815.8
2018-Dec-11 07:30N 52°10' E 003°10'815.9
2018-Dec-11 06:58N 52°04' E 003°00'2516.2
2018-Dec-11 05:27N 51°45' E 002°36'816.9
2018-Dec-11 05:00N 51°40' E 002°27'816.6
2018-Dec-11 04:30N 51°33' E 002°19'816.7
2018-Dec-11 04:01N 51°26' E 002°12'816.7
2018-Dec-11 03:30N 51°18' E 002°09'816.4
2018-Dec-11 03:00N 51°12' E 001°59'917.6
2018-Dec-11 02:30N 51°08' E 001°47'918.1
2018-Dec-11 02:00N 51°01' E 001°38'299.7
2018-Dec-11 02:00N 51°00' E 001°36'715.3 360 / 51026.610.8 8.2 5.112.0
2018-Dec-11 01:31N 50°54' E 001°28'816.9
2018-Dec-11 01:00N 50°47' E 001°22'816.2
2018-Dec-11 00:31N 50°40' E 001°15'916.5
2018-Dec-10 23:58N 50°34' E 001°05'816.6
2018-Dec-10 23:29N 50°31' E 000°53'816.9
2018-Dec-10 23:00N 50°28' E 000°41'536582.0
2018-Dec-10 23:00N 50°24' W 000°42'4488.6 360 / 91027.610.8 9.5 5.712.0
2018-Dec-10 22:29N 50°26' E 000°28'1417.4
2018-Dec-10 21:40N 50°22' E 000°06'317.2
2018-Dec-10 21:29N 50°21' E 000°01'816.9
2018-Dec-10 21:00N 50°21' W 000°12'1316.7
2018-Dec-10 20:12N 50°28' W 000°30'316.2
2018-Dec-10 20:00N 50°29' W 000°34'816.3
2018-Dec-10 19:30N 50°33' W 000°45'815.9
2018-Dec-10 19:00N 50°38' W 000°55'611.1
2018-Dec-10 18:30N 50°43' W 000°60'816.5
2018-Dec-10 18:00N 50°46' W 001°12'510.0
2018-Dec-10 17:31N 50°49' W 001°18'5 9.4
2018-Dec-10 17:00N 50°52' W 001°23'3 5.1
2018-Dec-10 16:29N 50°54' W 001°26'0 0.0
2018-Dec-10 15:59N 50°54' W 001°26'0 0.0
2018-Dec-10 15:29N 50°54' W 001°26'0 0.0
2018-Dec-10 14:59N 50°54' W 001°26'0 0.0
2018-Dec-10 14:29N 50°54' W 001°26'0 0.0
2018-Dec-10 13:59N 50°54' W 001°26'0 0.0
2018-Dec-10 13:29N 50°54' W 001°26'0 0.0
2018-Dec-10 12:59N 50°54' W 001°26'0 0.0
2018-Dec-10 12:29N 50°54' W 001°26'0 0.0
2018-Dec-10 11:59N 50°54' W 001°26'0 0.0
2018-Dec-10 11:29N 50°54' W 001°26'0 0.0
2018-Dec-10 10:59N 50°54' W 001°26'0 0.0
2018-Dec-10 10:29N 50°54' W 001°26'0 0.0
2018-Dec-10 09:59N 50°54' W 001°26'0 0.0
2018-Dec-10 09:29N 50°54' W 001°26'0 0.0
2018-Dec-10 08:59N 50°54' W 001°26'0 0.0
2018-Dec-10 08:26N 50°54' W 001°26'0 0.0
2018-Dec-10 07:59N 50°54' W 001°26'0 0.0
2018-Dec-10 07:26N 50°54' W 001°26'0 0.0
2018-Dec-10 06:50N 50°54' W 001°26'0 0.0
2018-Dec-10 06:30N 50°54' W 001°26'1 1.6
2018-Dec-10 06:00N 50°54' W 001°25'4 9.0
2018-Dec-10 05:31N 50°51' W 001°20'4 8.8
2018-Dec-10 05:00N 50°46' W 001°18'715.0
2018-Dec-10 04:31N 50°45' W 001°06'713.6
2018-Dec-10 04:00N 50°42' W 000°56'10 9.7
2018-Dec-10 03:00N 50°36' W 000°44'917.6
2018-Dec-10 02:30N 50°34' W 000°31'1218.2
2018-Dec-10 01:50N 50°32' W 000°12'617.6
2018-Dec-10 01:30N 50°32' W 000°03'917.7
2018-Dec-10 01:00N 50°35' E 000°11'917.2
2018-Dec-10 00:30N 50°37' E 000°24'816.7
2018-Dec-10 00:00N 50°39' E 000°37'816.6
2018-Dec-09 23:30N 50°43' E 000°48'816.8
2018-Dec-09 23:00N 50°48' E 000°59'917.2
2018-Dec-09 22:30N 50°52' E 001°11'918.4
2018-Dec-09 22:00N 50°58' E 001°22'1020.5
2018-Dec-09 21:30N 51°05' E 001°34'1020.9
2018-Dec-09 21:00N 51°13' E 001°45'1020.7
2018-Dec-09 20:30N 51°22' E 001°52'1019.8
2018-Dec-09 20:00N 51°31' E 001°58'1019.0
2018-Dec-09 19:30N 51°40' E 002°05'918.2
2018-Dec-09 19:00N 51°48' E 002°09'917.6
2018-Dec-09 18:30N 51°57' E 002°12'917.0
2018-Dec-09 18:00N 52°05' E 002°15'816.4
2018-Dec-09 17:30N 52°13' E 002°17'816.2
2018-Dec-09 17:00N 52°21' E 002°20'815.9
2018-Dec-09 16:30N 52°29' E 002°24'815.7
2018-Dec-09 16:00N 52°37' E 002°26'815.6
2018-Dec-09 15:30N 52°44' E 002°29'815.9
2018-Dec-09 15:00N 52°52' E 002°32'816.2
2018-Dec-09 14:30N 53°00' E 002°35'26817.6
2018-Dec-08 23:19N 57°18' E 004°37'617.5
2018-Dec-08 22:59N 57°24' E 004°39'917.5
2018-Dec-08 22:28N 57°33' E 004°43'919.1
2018-Dec-08 22:00N 57°42' E 004°42'24266.4 310 / 25979.2 7.5 6.1 8.0
2018-Dec-08 21:59N 57°41' E 004°46'817.1
2018-Dec-08 21:30N 57°49' E 004°49'816.7
2018-Dec-08 21:00N 57°57' E 004°53'916.9
2018-Dec-08 20:30N 58°06' E 004°57'817.0
2018-Dec-08 20:00N 58°14' E 005°01'917.3
2018-Dec-08 19:30N 58°22' E 005°05'816.9
2018-Dec-08 19:00N 58°30' E 005°08'816.3
2018-Dec-08 18:30N 58°38' E 005°12'815.6
2018-Dec-08 18:00N 58°45' E 005°18'815.0
2018-Dec-08 17:30N 58°51' E 005°28'612.6
2018-Dec-08 17:00N 58°57' E 005°33'712.9
2018-Dec-08 16:30N 59°03' E 005°35'510.7
2018-Dec-08 16:00N 58°59' E 005°42'1 1.9
2018-Dec-08 15:28N 58°58' E 005°44'0 0.0
2018-Dec-08 14:58N 58°58' E 005°44'0 0.0
2018-Dec-08 14:28N 58°58' E 005°44'0 0.0
2018-Dec-08 13:58N 58°58' E 005°44'0 0.0
2018-Dec-08 13:28N 58°58' E 005°44'0 0.0
2018-Dec-08 12:58N 58°58' E 005°44'0 0.0
2018-Dec-08 12:28N 58°58' E 005°44'0 0.0
2018-Dec-08 11:58N 58°58' E 005°44'0 0.0
2018-Dec-08 11:28N 58°58' E 005°44'0 0.0
2018-Dec-08 10:58N 58°58' E 005°44'0 0.0
2018-Dec-08 10:28N 58°58' E 005°44'0 0.0
2018-Dec-08 09:58N 58°58' E 005°44'0 0.0
2018-Dec-08 09:28N 58°58' E 005°44'0 0.0
2018-Dec-08 08:58N 58°58' E 005°44'0 0.0
2018-Dec-08 08:28N 58°58' E 005°44'0 0.0
2018-Dec-08 07:58N 58°58' E 005°44'0 0.1
2018-Dec-08 07:31N 58°59' E 005°44'2 4.1
2018-Dec-08 07:00N 59°00' E 005°41'612.6
2018-Dec-08 06:30N 59°05' E 005°32'4 8.3
2018-Dec-08 06:00N 59°06' E 005°24'816.8
2018-Dec-08 05:30N 59°02' E 005°10'918.8
2018-Dec-08 05:00N 59°08' E 004°55'1019.1
2018-Dec-08 04:30N 59°15' E 004°42'919.0
2018-Dec-08 04:01N 59°23' E 004°36'1019.1
2018-Dec-08 03:30N 59°33' E 004°30'1019.2
2018-Dec-08 03:00N 59°42' E 004°23'917.4
2018-Dec-08 02:30N 59°50' E 004°17'816.6
2018-Dec-08 02:00N 59°57' E 004°11'917.4
2018-Dec-08 01:30N 60°05' E 004°06'917.7
2018-Dec-08 01:00N 60°14' E 004°01'816.8
2018-Dec-08 00:30N 60°22' E 004°02'816.7
2018-Dec-08 00:00N 60°31' E 004°03'816.6
2018-Dec-07 23:30N 60°39' E 004°03'916.8
2018-Dec-07 22:59N 60°48' E 004°03'817.1
2018-Dec-07 22:30N 60°56' E 004°02'816.6
2018-Dec-07 22:00N 61°04' E 004°02'4342.0
2018-Dec-07 22:00N 61°00' E 004°00'1325.8 210 / 23978.810.8 8.5 6.3 9.0
2018-Dec-07 21:30N 61°13' E 004°02'816.8
2018-Dec-07 21:00N 61°21' E 004°01'917.1
2018-Dec-07 20:30N 61°30' E 004°00'917.4
2018-Dec-07 20:00N 61°38' E 003°60'917.9
2018-Dec-07 19:30N 61°47' E 003°60'917.3
2018-Dec-07 19:00N 61°56' E 004°00'917.6
2018-Dec-07 18:30N 62°04' E 004°06'1021.2
2018-Dec-07 18:00N 62°13' E 004°17'1121.1
2018-Dec-07 17:30N 62°23' E 004°28'1020.7
2018-Dec-07 17:00N 62°31' E 004°40'1121.0
2018-Dec-07 16:30N 62°41' E 004°51'1020.2
2018-Dec-07 16:00N 62°49' E 005°03'1021.0
2018-Dec-07 15:30N 62°58' E 005°14'1020.6
2018-Dec-07 15:00N 63°07' E 005°26'1020.1
2018-Dec-07 14:30N 63°16' E 005°37'1120.8
2018-Dec-07 14:00N 63°25' E 005°49'1020.8
2018-Dec-07 13:30N 63°34' E 006°00'1120.9
2018-Dec-07 13:00N 63°43' E 006°12'1121.5
2018-Dec-07 12:30N 63°52' E 006°24'1121.5
2018-Dec-07 12:01N 64°01' E 006°37'1121.3
2018-Dec-07 11:30N 64°11' E 006°49'1121.4
2018-Dec-07 11:00N 64°20' E 007°01'1121.2
2018-Dec-07 10:29N 64°29' E 007°14'1121.3
2018-Dec-07 10:00N 64°38' E 007°27'1121.3
2018-Dec-07 09:30N 64°48' E 007°39'1121.0
2018-Dec-07 09:00N 64°57' E 007°52'1020.8
2018-Dec-07 08:30N 65°06' E 008°04'1220.9
2018-Dec-07 07:56N 65°16' E 008°18'1319.8
2018-Dec-07 07:17N 65°27' E 008°34'617.8
2018-Dec-07 06:58N 65°32' E 008°41'818.0
2018-Dec-07 06:30N 65°39' E 008°51'918.2
2018-Dec-07 06:00N 65°47' E 009°02'918.1
2018-Dec-07 05:30N 65°55' E 009°13'917.9
2018-Dec-07 05:00N 66°02' E 009°24'917.9
2018-Dec-07 04:30N 66°10' E 009°36'917.8
2018-Dec-07 04:00N 66°18' E 009°46'917.8
2018-Dec-07 03:30N 66°26' E 009°57'1818.0
2018-Dec-07 02:30N 66°41' E 010°21'918.0
2018-Dec-07 02:00N 66°49' E 010°32'918.1
2018-Dec-07 01:30N 66°57' E 010°43'918.0
2018-Dec-07 01:00N 67°04' E 010°55'917.6
2018-Dec-07 00:30N 67°12' E 011°06'917.5
2018-Dec-07 00:00N 67°20' E 011°18'917.2
2018-Dec-06 23:30N 67°27' E 011°31'817.0
2018-Dec-06 23:00N 67°34' E 011°43'918.2
2018-Dec-06 22:30N 67°41' E 011°57'918.0
2018-Dec-06 22:00N 67°49' E 012°10'917.5
2018-Dec-06 21:30N 67°56' E 012°23'917.4
2018-Dec-06 21:00N 68°03' E 012°37'817.0
2018-Dec-06 20:30N 68°10' E 012°49'816.9
2018-Dec-06 20:01N 68°17' E 013°02'917.9
2018-Dec-06 19:30N 68°24' E 013°17'917.7
2018-Dec-06 19:00N 68°31' E 013°31'917.4
2018-Dec-06 18:29N 68°39' E 013°44'917.7
2018-Dec-06 18:00N 68°46' E 013°58'917.9
2018-Dec-06 17:30N 68°53' E 014°12'816.9
2018-Dec-06 17:00N 68°60' E 014°26'816.5
2018-Dec-06 16:30N 69°06' E 014°41'917.9
2018-Dec-06 16:00N 69°14' E 014°55'817.1
2018-Dec-06 15:30N 69°21' E 015°09'917.0
2018-Dec-06 15:00N 69°27' E 015°26'816.4
2018-Dec-06 14:30N 69°32' E 015°44'916.7
2018-Dec-06 14:00N 69°37' E 016°03'817.0
2018-Dec-06 13:30N 69°43' E 016°21'917.6
2018-Dec-06 13:00N 69°48' E 016°41'918.4
2018-Dec-06 12:30N 69°54' E 017°02'918.0
2018-Dec-06 12:00N 69°59' E 017°23'817.2
2018-Dec-06 11:31N 70°04' E 017°43'917.5
2018-Dec-06 11:00N 70°10' E 018°03'817.1
2018-Dec-06 10:30N 70°15' E 018°23'816.4
2018-Dec-06 10:00N 70°20' E 018°44'52990.2
2018-Dec-06 10:00N 70°18' E 018°30'1326.2 300 / 43996.710.8 3.2 1.1 8.0
2018-Dec-06 09:30N 70°23' E 019°05'815.9
2018-Dec-06 09:00N 70°23' E 019°29'917.0
2018-Dec-06 08:30N 70°22' E 019°54'816.8
2018-Dec-06 08:00N 70°21' E 020°19'815.7
2018-Dec-06 07:30N 70°13' E 020°21'815.7
2018-Dec-06 07:00N 70°06' E 020°15'611.2
2018-Dec-06 06:30N 70°11' E 020°22'916.8
2018-Dec-06 06:00N 70°17' E 020°40'917.7
2018-Dec-06 05:30N 70°21' E 021°03'917.3
2018-Dec-06 05:00N 70°26' E 021°25'817.1
2018-Dec-06 04:30N 70°25' E 021°50'815.5
2018-Dec-06 04:00N 70°20' E 022°09'1717.2
2018-Dec-06 03:00N 70°13' E 022°56'815.8
2018-Dec-06 02:30N 70°06' E 023°05'714.9
2018-Dec-06 02:00N 70°00' E 023°18'1 2.8
2018-Dec-06 01:30N 69°59' E 023°20'0 0.0
2018-Dec-06 01:00N 69°59' E 023°20'0 0.0
2018-Dec-06 00:30N 69°59' E 023°20'0 0.0
2018-Dec-06 00:00N 69°59' E 023°20'0 0.0
2018-Dec-05 23:30N 69°59' E 023°20'0 0.0
2018-Dec-05 23:00N 69°59' E 023°20'0 0.0
2018-Dec-05 22:30N 69°59' E 023°20'0 0.0
2018-Dec-05 22:00N 69°59' E 023°20'0 0.0
2018-Dec-05 21:30N 69°59' E 023°20'0 0.0
2018-Dec-05 21:00N 69°59' E 023°20'0 0.0
2018-Dec-05 20:30N 69°59' E 023°20'0 0.0
2018-Dec-05 20:00N 69°59' E 023°20'0 0.0
2018-Dec-05 19:30N 69°59' E 023°20'0 0.0
2018-Dec-05 19:00N 69°59' E 023°20'0 0.0
2018-Dec-05 18:30N 69°59' E 023°20'0 0.0
2018-Dec-05 18:00N 69°59' E 023°20'0 0.0
2018-Dec-05 17:30N 69°59' E 023°20'0 0.0
2018-Dec-05 17:00N 69°59' E 023°20'0 0.0
2018-Dec-05 16:30N 69°59' E 023°20'0 0.0
2018-Dec-05 16:00N 69°59' E 023°20'0 0.0
2018-Dec-05 15:30N 69°59' E 023°20'0 0.0
2018-Dec-05 14:57N 69°59' E 023°20'0 0.0
2018-Dec-05 14:30N 69°59' E 023°20'0 0.0
2018-Dec-05 14:00N 69°59' E 023°20'0 0.0
2018-Dec-05 13:30N 69°59' E 023°20'0 0.0
2018-Dec-05 13:00N 69°59' E 023°20'0 0.0
2018-Dec-05 12:30N 69°59' E 023°20'0 0.0
2018-Dec-05 12:00N 69°59' E 023°20'0 0.0
2018-Dec-05 11:30N 69°59' E 023°20'0 0.0
2018-Dec-05 11:00N 69°59' E 023°20'0 0.0
2018-Dec-05 10:30N 69°59' E 023°20'0 0.0
2018-Dec-05 10:00N 69°59' E 023°20'0 0.0
2018-Dec-05 09:30N 69°59' E 023°20'0 0.0
2018-Dec-05 09:00N 69°59' E 023°20'0 0.0
2018-Dec-05 08:30N 69°59' E 023°20'0 0.0
2018-Dec-05 08:00N 69°59' E 023°20'0 0.0
2018-Dec-05 07:30N 69°59' E 023°20'0 0.0
2018-Dec-05 07:00N 69°59' E 023°20'0 0.0
2018-Dec-05 06:30N 69°59' E 023°20'0 0.0
2018-Dec-05 06:00N 69°59' E 023°20'0 0.0
2018-Dec-05 05:30N 69°59' E 023°20'0 0.0
2018-Dec-05 05:00N 69°59' E 023°20'0 0.0
2018-Dec-05 04:30N 69°59' E 023°20'0 0.0
2018-Dec-05 04:00N 69°59' E 023°20'0 0.0
2018-Dec-05 03:30N 69°59' E 023°20'0 0.0
2018-Dec-05 03:00N 69°59' E 023°20'0 0.0
2018-Dec-05 02:30N 69°59' E 023°20'0 0.0
2018-Dec-05 02:00N 69°59' E 023°20'0 0.0
2018-Dec-05 01:30N 69°59' E 023°20'0 0.0
2018-Dec-05 01:00N 69°59' E 023°20'0 0.0
2018-Dec-05 00:30N 69°59' E 023°20'0 0.0
2018-Dec-05 00:00N 69°59' E 023°20'0 0.0
2018-Dec-04 23:30N 69°59' E 023°20'0 0.0
2018-Dec-04 23:00N 69°59' E 023°20'0 0.0
2018-Dec-04 22:30N 69°59' E 023°20'0 0.0
2018-Dec-04 22:00N 69°59' E 023°20'0 0.0
2018-Dec-04 21:30N 69°59' E 023°20'0 0.0
2018-Dec-04 21:00N 69°59' E 023°20'0 0.0
2018-Dec-04 20:30N 69°59' E 023°20'0 0.0
2018-Dec-04 20:00N 69°59' E 023°20'0 0.0
2018-Dec-04 19:30N 69°59' E 023°20'0 0.0
2018-Dec-04 19:00N 69°59' E 023°20'  

Dump ship's entire track history